createdAt,value
2023-02-14T00:00:37.316Z,103573.78
2023-02-14T00:03:06.395Z,103578.97
2023-02-14T00:05:35.552Z,103576.44
2023-02-14T00:08:04.621Z,103576.38
2023-02-14T00:10:33.729Z,103581.91
2023-02-14T00:13:02.780Z,103580.13
2023-02-14T00:15:32.203Z,103584.41
2023-02-14T00:18:01.249Z,103584.41
2023-02-14T00:20:30.711Z,103587.72
2023-02-14T00:23:00.843Z,103592.06
2023-02-14T00:25:29.932Z,103594.59
2023-02-14T00:27:59.022Z,103588.66
2023-02-14T00:30:28.225Z,103585.94
2023-02-14T00:32:58.682Z,103590.16
2023-02-14T00:35:27.809Z,103586.78
2023-02-14T00:37:56.796Z,103588.47
2023-02-14T00:40:25.800Z,103581.56
2023-02-14T00:42:54.783Z,103587.56
2023-02-14T00:45:25.052Z,103587.00
2023-02-14T00:47:54.674Z,103573.34
2023-02-14T00:50:25.050Z,103568.19
2023-02-14T00:52:54.003Z,103573.28
2023-02-14T00:56:18.406Z,103574.00
2023-02-14T00:59:06.407Z,103576.69
2023-02-14T01:01:35.611Z,103576.78
2023-02-14T01:04:05.701Z,103574.84
2023-02-14T01:06:36.244Z,103573.06
2023-02-14T01:09:05.385Z,103567.16
2023-02-14T01:11:35.394Z,103569.00
2023-02-14T01:14:04.692Z,103564.44
2023-02-14T01:17:29.126Z,103560.78
2023-02-14T01:20:03.752Z,103561.56
2023-02-14T01:23:28.056Z,103557.22
2023-02-14T01:27:11.297Z,103561.78
2023-02-14T01:30:54.377Z,103555.94
2023-02-14T01:34:37.374Z,103548.34
2023-02-14T01:38:20.636Z,103544.00
2023-02-14T01:42:03.838Z,103550.06
2023-02-14T01:45:46.796Z,103545.66
2023-02-14T01:48:36.129Z,103549.03
2023-02-14T01:51:05.466Z,103552.59
2023-02-14T01:53:34.705Z,103545.59
2023-02-14T01:56:10.677Z,103536.03
2023-02-14T01:58:44.995Z,103545.53
2023-02-14T02:01:33.239Z,103530.78
2023-02-14T02:04:08.656Z,103529.97
2023-02-14T02:06:40.604Z,103531.63
2023-02-14T02:09:16.087Z,103528.16
2023-02-14T02:11:45.569Z,103529.06
2023-02-14T02:14:20.334Z,103520.56
2023-02-14T02:17:10.535Z,103527.31
2023-02-14T02:20:19.281Z,103514.38
2023-02-14T02:23:28.593Z,103518.78
2023-02-14T02:26:35.493Z,103520.66
2023-02-14T02:29:34.206Z,103519.00
2023-02-14T02:32:32.501Z,103525.09
2023-02-14T02:35:36.675Z,103521.50
2023-02-14T02:38:28.926Z,103512.72
2023-02-14T02:41:05.171Z,103508.47
2023-02-14T02:43:46.133Z,103505.94
2023-02-14T02:46:41.039Z,103503.31
2023-02-14T02:49:36.634Z,103498.00
2023-02-14T02:52:31.878Z,103500.59
2023-02-14T02:55:06.862Z,103504.13
2023-02-14T02:57:40.079Z,103505.06
2023-02-14T03:00:12.431Z,103507.81
2023-02-14T03:03:03.765Z,103504.34
2023-02-14T03:05:35.742Z,103510.41
2023-02-14T03:08:06.383Z,103507.00
2023-02-14T03:10:39.267Z,103506.03
2023-02-14T03:13:36.189Z,103507.22
2023-02-14T03:16:25.267Z,103506.41
2023-02-14T03:19:16.951Z,103502.94
2023-02-14T03:21:52.315Z,103502.00
2023-02-14T03:24:31.569Z,103499.34
2023-02-14T03:27:06.915Z,103493.34
2023-02-14T03:29:49.167Z,103491.81
2023-02-14T03:32:27.738Z,103493.69
2023-02-14T03:35:01.819Z,103496.22
2023-02-14T03:37:37.802Z,103491.97
2023-02-14T03:40:13.065Z,103500.25
2023-02-14T03:42:46.286Z,103497.41
2023-02-14T03:45:21.868Z,103500.69
2023-02-14T03:47:53.626Z,103485.22
2023-02-14T03:50:22.883Z,103488.75
2023-02-14T03:52:54.657Z,103490.41
2023-02-14T03:55:33.579Z,103482.44
2023-02-14T03:58:08.888Z,103478.44
2023-02-14T04:00:42.072Z,103478.34
2023-02-14T04:03:14.931Z,103479.91
2023-02-14T04:05:52.155Z,103469.44
2023-02-14T04:08:27.162Z,103465.22
2023-02-14T04:11:01.551Z,103466.84
2023-02-14T04:13:30.884Z,103466.91
2023-02-14T04:15:59.986Z,103468.66
2023-02-14T04:18:46.734Z,103466.16
2023-02-14T04:21:18.737Z,103467.72
2023-02-14T04:23:47.834Z,103470.38
2023-02-14T04:26:18.266Z,103469.44
2023-02-14T04:28:47.483Z,103466.34
2023-02-14T04:31:17.381Z,103460.19
2023-02-14T04:33:48.111Z,103465.25
2023-02-14T04:36:17.150Z,103464.38
2023-02-14T04:38:46.211Z,103464.28
2023-02-14T04:41:15.308Z,103462.66
2023-02-14T04:43:45.814Z,103460.03
2023-02-14T04:46:14.872Z,103453.19
2023-02-14T04:48:44.056Z,103454.03
2023-02-14T04:51:13.141Z,103454.84
2023-02-14T04:53:43.178Z,103455.63
2023-02-14T04:56:12.260Z,103461.66
2023-02-14T04:58:41.294Z,103462.53
2023-02-14T05:01:11.740Z,103456.50
2023-02-14T05:03:40.805Z,103457.31
2023-02-14T05:06:09.908Z,103453.00
2023-02-14T05:08:39.046Z,103457.38
2023-02-14T05:11:08.246Z,103461.78
2023-02-14T05:13:37.308Z,103452.19
2023-02-14T05:16:06.754Z,103455.63
2023-02-14T05:18:37.177Z,103457.38
2023-02-14T05:21:06.696Z,103445.31
2023-02-14T05:23:35.874Z,103447.84
2023-02-14T05:26:05.648Z,103451.38
2023-02-14T05:28:35.018Z,103453.91
2023-02-14T05:31:04.377Z,103455.59
2023-02-14T05:33:33.868Z,103446.19
2023-02-14T05:36:04.794Z,103448.00
2023-02-14T05:38:34.892Z,103453.06
2023-02-14T05:41:04.255Z,103446.94
2023-02-14T05:43:33.343Z,103446.31
2023-02-14T05:46:02.465Z,103449.66
2023-02-14T05:48:31.794Z,103438.31
2023-02-14T05:51:06.672Z,103439.19
2023-02-14T05:53:36.323Z,103436.59
2023-02-14T05:56:06.260Z,103438.41
2023-02-14T05:58:35.579Z,103437.53
2023-02-14T06:01:04.683Z,103441.78
2023-02-14T06:03:33.758Z,103439.25
2023-02-14T06:06:02.893Z,103445.19
2023-02-14T06:08:33.373Z,103444.34
2023-02-14T06:11:02.679Z,103434.00
2023-02-14T06:13:32.039Z,103431.41
2023-02-14T06:16:01.100Z,103432.19
2023-02-14T06:18:30.123Z,103436.53
2023-02-14T06:20:59.527Z,103436.59
2023-02-14T06:23:28.742Z,103438.47
2023-02-14T06:25:59.244Z,103443.66
2023-02-14T06:28:28.266Z,103443.66
2023-02-14T06:30:57.452Z,103439.13
2023-02-14T06:33:26.687Z,103447.78
2023-02-14T06:35:55.838Z,103447.84
2023-02-14T06:38:25.045Z,103457.38
2023-02-14T06:40:54.174Z,103455.59
2023-02-14T06:43:24.677Z,103452.91
2023-02-14T06:45:53.848Z,103460.97
2023-02-14T06:48:23.236Z,103453.91
2023-02-14T06:50:52.868Z,103459.13
2023-02-14T06:53:22.587Z,103457.31
2023-02-14T06:55:51.648Z,103465.97
2023-02-14T06:58:21.007Z,103456.50
2023-02-14T07:00:51.548Z,103458.06
2023-02-14T07:03:20.612Z,103452.09
2023-02-14T07:05:49.784Z,103451.97
2023-02-14T07:08:19.190Z,103452.78
2023-02-14T07:10:48.302Z,103456.44
2023-02-14T07:13:17.433Z,103455.31
2023-02-14T07:15:48.365Z,103452.69
2023-02-14T07:18:18.824Z,103452.84
2023-02-14T07:20:47.897Z,103458.69
2023-02-14T07:23:17.018Z,103451.69
2023-02-14T07:25:46.104Z,103449.22
2023-02-14T07:28:15.283Z,103450.03
2023-02-14T07:30:44.448Z,103450.84
2023-02-14T07:33:14.730Z,103447.44
2023-02-14T07:35:45.242Z,103443.75
2023-02-14T07:38:14.357Z,103444.53
2023-02-14T07:40:43.432Z,103444.47
2023-02-14T07:43:12.543Z,103446.34
2023-02-14T07:45:41.608Z,103437.53
2023-02-14T07:48:10.731Z,103450.44
2023-02-14T07:50:39.885Z,103445.03
2023-02-14T07:53:10.763Z,103444.94
2023-02-14T07:55:40.544Z,103447.59
2023-02-14T07:58:09.703Z,103451.63
2023-02-14T08:00:38.795Z,103450.06
2023-02-14T08:03:07.851Z,103445.50
2023-02-14T08:05:37.616Z,103435.88
2023-02-14T08:08:06.761Z,103441.84
2023-02-14T08:10:37.220Z,103435.78
2023-02-14T08:13:06.423Z,103445.94
2023-02-14T08:15:54.354Z,103443.22
2023-02-14T08:18:24.033Z,103443.34
2023-02-14T08:20:53.445Z,103444.03
2023-02-14T08:23:23.090Z,103435.25
2023-02-14T08:25:54.708Z,103443.09
2023-02-14T08:28:23.913Z,103439.63
2023-02-14T08:30:53.295Z,103431.97
2023-02-14T08:33:23.123Z,103428.06
2023-02-14T08:35:53.098Z,103433.16
2023-02-14T08:38:22.213Z,103435.69
2023-02-14T08:40:52.713Z,103436.13
2023-02-14T08:43:22.010Z,103430.91
2023-02-14T08:45:54.371Z,103433.94
2023-02-14T08:48:25.190Z,103435.53
2023-02-14T08:50:54.326Z,103442.81
2023-02-14T08:53:23.385Z,103434.22
2023-02-14T08:55:53.847Z,103437.19
2023-02-14T08:58:23.084Z,103436.72
2023-02-14T09:00:52.263Z,103443.75
2023-02-14T09:03:21.410Z,103440.41
2023-02-14T09:05:50.619Z,103439.03
2023-02-14T09:08:19.784Z,103438.44
2023-02-14T09:10:48.899Z,103435.06
2023-02-14T09:13:19.419Z,103433.66
2023-02-14T09:15:48.695Z,103429.41
2023-02-14T09:18:17.789Z,103428.47
2023-02-14T09:20:46.851Z,103421.72
2023-02-14T09:23:15.992Z,103423.63
2023-02-14T09:25:45.051Z,103423.13
2023-02-14T09:28:14.138Z,103424.91
2023-02-14T09:30:44.563Z,103415.69
2023-02-14T09:33:13.588Z,103417.88
2023-02-14T09:35:42.677Z,103420.25
2023-02-14T09:38:17.851Z,103417.94
2023-02-14T09:40:48.256Z,103412.28
2023-02-14T09:43:24.553Z,103411.31
2023-02-14T09:45:58.606Z,103401.66
2023-02-14T09:48:32.525Z,103401.22
2023-02-14T09:51:06.439Z,103403.06
2023-02-14T09:53:45.275Z,103399.41
2023-02-14T09:56:20.407Z,103401.97
2023-02-14T09:58:55.976Z,103406.53
2023-02-14T10:01:31.623Z,103405.16
2023-02-14T10:04:24.657Z,103399.78
2023-02-14T10:06:59.699Z,103396.44
2023-02-14T10:09:49.857Z,103401.34
2023-02-14T10:12:27.481Z,103401.63
2023-02-14T10:15:01.458Z,103401.66
2023-02-14T10:17:39.995Z,103393.00
2023-02-14T10:20:22.783Z,103399.16
2023-02-14T10:22:58.848Z,103393.75
2023-02-14T10:25:33.465Z,103396.84
2023-02-14T10:28:03.976Z,103396.63
2023-02-14T10:30:39.659Z,103391.19
2023-02-14T10:33:17.742Z,103393.63
2023-02-14T10:35:50.236Z,103390.19
2023-02-14T10:38:33.258Z,103391.34
2023-02-14T10:41:24.423Z,103385.63
2023-02-14T10:44:02.413Z,103389.22
2023-02-14T10:46:40.837Z,103383.28
2023-02-14T10:49:29.171Z,103379.28
2023-02-14T10:52:08.066Z,103377.03
2023-02-14T10:54:40.153Z,103380.06
2023-02-14T10:57:15.575Z,103367.03
2023-02-14T10:59:52.312Z,103369.06
2023-02-14T11:02:26.705Z,103372.00
2023-02-14T11:04:57.819Z,103368.28
2023-02-14T11:07:26.999Z,103368.34
2023-02-14T11:09:56.429Z,103357.16
2023-02-14T11:12:38.231Z,103362.16
2023-02-14T11:15:20.363Z,103349.28
2023-02-14T11:17:49.814Z,103355.47
2023-02-14T11:20:31.321Z,103351.19
2023-02-14T11:23:00.411Z,103348.06
2023-02-14T11:25:35.152Z,103350.00
2023-02-14T11:28:06.943Z,103342.13
2023-02-14T11:30:38.132Z,103344.44
2023-02-14T11:33:08.136Z,103338.94
2023-02-14T11:35:39.788Z,103326.16
2023-02-14T11:38:25.841Z,103329.00
2023-02-14T11:40:58.708Z,103330.50
2023-02-14T11:43:34.135Z,103329.47
2023-02-14T11:46:09.632Z,103327.56
2023-02-14T11:48:39.752Z,103309.41
2023-02-14T11:51:13.877Z,103314.25
2023-02-14T11:53:48.605Z,103301.81
2023-02-14T11:56:20.123Z,103309.47
2023-02-14T11:58:57.442Z,103302.34
2023-02-14T12:01:28.977Z,103292.06
2023-02-14T12:04:02.284Z,103285.22
2023-02-14T12:06:36.643Z,103277.19
2023-02-14T12:09:13.771Z,103282.38
2023-02-14T12:11:54.877Z,103274.56
2023-02-14T12:14:25.688Z,103280.13
2023-02-14T12:17:01.664Z,103268.75
2023-02-14T12:19:41.727Z,103269.06
2023-02-14T12:22:18.815Z,103265.75
2023-02-14T12:24:58.253Z,103269.91
2023-02-14T12:27:35.381Z,103261.00
2023-02-14T12:30:14.258Z,103262.88
2023-02-14T12:32:49.464Z,103262.09
2023-02-14T12:35:42.239Z,103256.63
2023-02-14T12:38:18.839Z,103251.91
2023-02-14T12:41:02.051Z,103258.53
2023-02-14T12:43:50.585Z,103247.09
2023-02-14T12:46:33.359Z,103251.16
2023-02-14T12:49:23.434Z,103240.66
2023-02-14T12:52:02.416Z,103234.94
2023-02-14T12:54:49.237Z,103236.13
2023-02-14T12:57:33.926Z,103232.28
2023-02-14T13:00:18.152Z,103228.81
2023-02-14T13:03:14.675Z,103218.78
2023-02-14T13:05:56.803Z,103223.34
2023-02-14T13:08:38.598Z,103212.44
2023-02-14T13:11:19.273Z,103207.28
2023-02-14T13:13:57.226Z,103211.78
2023-02-14T13:16:35.221Z,103207.03
2023-02-14T13:19:11.890Z,103201.13
2023-02-14T13:21:42.891Z,103204.22
2023-02-14T13:24:19.332Z,103195.53
2023-02-14T13:26:53.799Z,103186.69
2023-02-14T13:29:26.498Z,103171.81
2023-02-14T13:32:00.070Z,103177.38
2023-02-14T13:34:32.948Z,103172.09
2023-02-14T13:37:07.451Z,103161.84
2023-02-14T13:39:43.558Z,103174.72
2023-02-14T13:42:14.412Z,103160.00
2023-02-14T13:44:45.215Z,103165.59
2023-02-14T13:47:22.905Z,103165.53
2023-02-14T13:49:56.197Z,103165.28
2023-02-14T13:52:42.653Z,103158.63
2023-02-14T13:55:18.733Z,103166.19
2023-02-14T13:58:03.158Z,103154.16
2023-02-14T14:00:43.320Z,103162.88
2023-02-14T14:03:16.583Z,103150.41
2023-02-14T14:06:01.430Z,103155.66
2023-02-14T14:08:42.204Z,103151.88
2023-02-14T14:11:34.556Z,103145.72
2023-02-14T14:14:27.291Z,103144.63
2023-02-14T14:16:59.823Z,103148.28
2023-02-14T14:19:41.293Z,103146.16
2023-02-14T14:22:14.232Z,103148.47
2023-02-14T14:24:53.397Z,103145.84
2023-02-14T14:27:25.658Z,103141.81
2023-02-14T14:29:58.462Z,103141.50
2023-02-14T14:32:30.616Z,103138.59
2023-02-14T14:35:02.695Z,103133.50
2023-02-14T14:37:34.798Z,103141.94
2023-02-14T14:40:05.570Z,103134.22
2023-02-14T14:42:38.912Z,103132.41
2023-02-14T14:45:21.585Z,103135.75
2023-02-14T14:47:54.340Z,103125.41
2023-02-14T14:50:25.882Z,103128.69
2023-02-14T14:52:58.468Z,103125.75
2023-02-14T14:55:30.490Z,103128.50
2023-02-14T14:58:03.740Z,103123.69
2023-02-14T15:00:35.580Z,103118.81
2023-02-14T15:03:07.848Z,103117.59
2023-02-14T15:05:39.085Z,103122.09
2023-02-14T15:08:32.397Z,103121.59
2023-02-14T15:11:03.746Z,103113.94
2023-02-14T15:13:50.497Z,103110.13
2023-02-14T15:16:24.062Z,103103.53
2023-02-14T15:18:57.276Z,103106.44
2023-02-14T15:21:26.750Z,103104.94
2023-02-14T15:23:56.101Z,103102.47
2023-02-14T15:26:29.301Z,103100.75
2023-02-14T15:29:00.573Z,103104.00
2023-02-14T15:31:36.830Z,103100.47
2023-02-14T15:34:07.572Z,103108.81
2023-02-14T15:36:37.505Z,103095.72
2023-02-14T15:39:09.583Z,103094.56
2023-02-14T15:41:43.281Z,103093.56
2023-02-14T15:44:21.185Z,103084.22
2023-02-14T15:46:56.742Z,103080.25
2023-02-14T15:49:32.553Z,103078.72
2023-02-14T15:52:04.588Z,103083.44
2023-02-14T15:54:38.467Z,103079.75
2023-02-14T15:57:19.937Z,103084.00
2023-02-14T15:59:49.630Z,103083.22
2023-02-14T16:02:30.800Z,103082.75
2023-02-14T16:05:07.373Z,103087.69
2023-02-14T16:07:36.489Z,103083.50
2023-02-14T16:10:25.785Z,103082.78
2023-02-14T16:13:03.366Z,103076.03
2023-02-14T16:15:33.551Z,103075.13
2023-02-14T16:18:17.474Z,103070.59
2023-02-14T16:20:51.073Z,103070.97
2023-02-14T16:23:26.451Z,103068.34
2023-02-14T16:25:57.343Z,103068.47
2023-02-14T16:28:30.298Z,103069.03
2023-02-14T16:31:02.870Z,103064.66
2023-02-14T16:33:35.870Z,103062.44
2023-02-14T16:36:09.357Z,103057.72
2023-02-14T16:38:43.634Z,103062.38
2023-02-14T16:41:18.755Z,103059.34
2023-02-14T16:43:48.380Z,103060.25
2023-02-14T16:46:20.513Z,103058.91
2023-02-14T16:48:52.343Z,103058.56
2023-02-14T16:51:22.907Z,103057.06
2023-02-14T16:53:52.558Z,103061.84
2023-02-14T16:56:25.174Z,103066.13
2023-02-14T16:58:54.281Z,103064.81
2023-02-14T17:01:23.427Z,103065.69
2023-02-14T17:03:54.069Z,103063.19
2023-02-14T17:06:27.608Z,103069.59
2023-02-14T17:08:59.780Z,103068.91
2023-02-14T17:11:32.502Z,103065.34
2023-02-14T17:14:01.838Z,103068.56
2023-02-14T17:16:32.286Z,103062.00
2023-02-14T17:19:04.234Z,103068.31
2023-02-14T17:21:34.317Z,103064.03
2023-02-14T17:24:03.784Z,103065.09
2023-02-14T17:26:33.853Z,103067.09
2023-02-14T17:29:02.986Z,103054.47
2023-02-14T17:31:32.154Z,103054.78
2023-02-14T17:34:02.993Z,103058.53
2023-02-14T17:36:33.171Z,103056.06
2023-02-14T17:39:03.288Z,103059.38
2023-02-14T17:41:32.867Z,103058.75
2023-02-14T17:44:02.091Z,103060.44
2023-02-14T17:46:32.377Z,103062.25
2023-02-14T17:49:03.480Z,103058.03
2023-02-14T17:51:32.831Z,103051.38
2023-02-14T17:54:02.125Z,103056.22
2023-02-14T17:56:31.244Z,103046.91
2023-02-14T17:59:00.503Z,103050.03
2023-02-14T18:01:31.412Z,103034.47
2023-02-14T18:04:02.179Z,103034.41
2023-02-14T18:06:31.711Z,103041.13
2023-02-14T18:09:00.925Z,103045.69
2023-02-14T18:11:30.986Z,103038.16
2023-02-14T18:14:01.590Z,103033.31
2023-02-14T18:16:30.863Z,103031.53
2023-02-14T18:19:04.224Z,103033.66
2023-02-14T18:21:35.669Z,103036.16
2023-02-14T18:24:05.955Z,103032.88
2023-02-14T18:26:36.504Z,103031.25
2023-02-14T18:29:06.650Z,103026.81
2023-02-14T18:31:37.512Z,103026.06
2023-02-14T18:34:09.401Z,103028.03
2023-02-14T18:36:40.954Z,103022.06
2023-02-14T18:39:10.430Z,103026.09
2023-02-14T18:41:39.710Z,103024.47
2023-02-14T18:44:09.066Z,103022.88
2023-02-14T18:46:38.360Z,103015.16
2023-02-14T18:49:09.458Z,103014.72
2023-02-14T18:51:39.654Z,103019.91
2023-02-14T18:54:09.282Z,103018.75
2023-02-14T18:56:39.913Z,103022.69
2023-02-14T18:59:11.107Z,103012.44
2023-02-14T19:01:43.031Z,103012.88
2023-02-14T19:04:14.174Z,103016.75
2023-02-14T19:06:44.787Z,103011.69
2023-02-14T19:09:17.116Z,103008.44
2023-02-14T19:11:46.894Z,103009.53
2023-02-14T19:14:16.082Z,103001.22
2023-02-14T19:16:50.497Z,102997.66
2023-02-14T19:19:22.877Z,102998.56
2023-02-14T19:21:52.235Z,103003.94
2023-02-14T19:24:23.057Z,102997.66
2023-02-14T19:26:53.024Z,102998.78
2023-02-14T19:29:22.980Z,102995.28
2023-02-14T19:31:54.654Z,102994.41
2023-02-14T19:34:28.948Z,103002.50
2023-02-14T19:37:00.495Z,103007.50
2023-02-14T19:39:30.880Z,103003.22
2023-02-14T19:42:01.170Z,102998.06
2023-02-14T19:44:31.257Z,103005.03
2023-02-14T19:47:04.192Z,102999.19
2023-02-14T19:49:38.588Z,103010.34
2023-02-14T19:52:14.144Z,103004.50
2023-02-14T19:54:46.436Z,103002.84
2023-02-14T19:57:17.521Z,103002.72
2023-02-14T19:59:46.808Z,103003.53
2023-02-14T20:02:18.081Z,102999.22
2023-02-14T20:04:48.930Z,102993.97
2023-02-14T20:07:18.084Z,102998.41
2023-02-14T20:09:47.548Z,102993.22
2023-02-14T20:12:16.866Z,103001.81
2023-02-14T20:14:51.263Z,102991.41
2023-02-14T20:17:21.471Z,102998.66
2023-02-14T20:19:52.726Z,102990.09
2023-02-14T20:22:23.041Z,102996.34
2023-02-14T20:24:52.262Z,102984.13
2023-02-14T20:27:24.614Z,102982.47
2023-02-14T20:29:56.288Z,102982.63
2023-02-14T20:32:25.634Z,102975.88
2023-02-14T20:34:57.919Z,102976.69
2023-02-14T20:37:27.297Z,102966.47
2023-02-14T20:39:57.066Z,102959.22
2023-02-14T20:42:26.337Z,102963.09
2023-02-14T20:44:55.812Z,102963.28
2023-02-14T20:47:25.094Z,102958.31
2023-02-14T20:49:55.783Z,102950.72
2023-02-14T20:52:26.877Z,102949.38
2023-02-14T20:54:55.981Z,102948.28
2023-02-14T20:57:25.066Z,102950.25
2023-02-14T20:59:54.143Z,102952.94
2023-02-14T21:02:23.267Z,102950.34
2023-02-14T21:04:52.345Z,102959.00
2023-02-14T21:07:22.799Z,102953.72
2023-02-14T21:09:51.888Z,102947.72
2023-02-14T21:12:21.156Z,102941.84
2023-02-14T21:14:50.920Z,102944.47
2023-02-14T21:17:20.091Z,102935.78
2023-02-14T21:19:49.155Z,102944.56
2023-02-14T21:22:18.438Z,102936.69
2023-02-14T21:24:49.178Z,102943.72
2023-02-14T21:27:18.335Z,102934.41
2023-02-14T21:29:47.500Z,102939.50
2023-02-14T21:32:16.799Z,102935.03
2023-02-14T21:34:46.125Z,102937.66
2023-02-14T21:37:15.207Z,102936.69
2023-02-14T21:39:45.446Z,102931.97
2023-02-14T21:42:17.188Z,102931.69
2023-02-14T21:45:04.137Z,102937.84
2023-02-14T21:47:36.868Z,102937.78
2023-02-14T21:50:32.791Z,102929.16
2023-02-14T21:53:02.181Z,102929.34
2023-02-14T21:55:31.220Z,102924.38
2023-02-14T21:58:01.752Z,102930.03
2023-02-14T22:00:30.847Z,102926.50
2023-02-14T22:02:59.975Z,102916.88
2023-02-14T22:05:29.113Z,102914.91
2023-02-14T22:07:58.191Z,102916.84
2023-02-14T22:10:27.294Z,102918.66
2023-02-14T22:12:56.345Z,102916.16
2023-02-14T22:15:27.412Z,102914.44
2023-02-14T22:17:56.478Z,102911.97
2023-02-14T22:20:25.547Z,102905.78
2023-02-14T22:22:54.594Z,102899.84
2023-02-14T22:25:25.277Z,102905.47
2023-02-14T22:27:55.241Z,102900.75
2023-02-14T22:30:24.534Z,102899.13
2023-02-14T22:32:55.020Z,102894.19
2023-02-14T22:35:24.134Z,102885.66
2023-02-14T22:37:53.278Z,102891.69
2023-02-14T22:40:22.357Z,102889.28
2023-02-14T22:42:51.394Z,102878.06
2023-02-14T22:45:20.535Z,102887.72
2023-02-14T22:47:49.615Z,102884.44
2023-02-14T22:50:20.350Z,102883.50
2023-02-14T22:52:49.430Z,102882.63
2023-02-14T22:55:19.130Z,102889.03
2023-02-14T22:57:48.193Z,102886.19
2023-02-14T23:00:17.583Z,102880.56
2023-02-14T23:02:46.672Z,102879.19
2023-02-14T23:05:15.821Z,102882.53
2023-02-14T23:07:46.188Z,102881.94
2023-02-14T23:10:15.254Z,102885.47
2023-02-14T23:13:02.038Z,102871.63
2023-02-14T23:15:48.695Z,102868.00
2023-02-14T23:18:35.125Z,102875.81
2023-02-14T23:21:21.810Z,102873.91
2023-02-14T23:23:52.248Z,102872.28
2023-02-14T23:26:21.397Z,102868.38
2023-02-14T23:28:50.546Z,102875.53
2023-02-14T23:31:20.076Z,102877.28
2023-02-14T23:33:52.432Z,102868.63
2023-02-14T23:36:21.514Z,102875.44
2023-02-14T23:38:51.979Z,102872.81
2023-02-14T23:41:38.297Z,102864.13
2023-02-14T23:44:08.104Z,102861.47
2023-02-14T23:46:37.202Z,102863.19
2023-02-14T23:49:06.638Z,102854.78
2023-02-14T23:51:36.059Z,102849.59
2023-02-14T23:54:06.707Z,102851.38
2023-02-14T23:56:36.705Z,102850.53
2023-02-14T23:59:05.886Z,102844.53
